createdAt,value
2024-01-20T00:02:25.859Z,98182.41
2024-01-20T00:04:52.767Z,98184.30
2024-01-20T00:07:20.315Z,98180.11
2024-01-20T00:09:51.128Z,98183.23
2024-01-20T00:12:19.461Z,98183.19
2024-01-20T00:14:46.440Z,98188.04
2024-01-20T00:17:23.490Z,98187.98
2024-01-20T00:19:54.449Z,98187.14
2024-01-20T00:22:23.720Z,98194.98
2024-01-20T00:24:51.002Z,98193.90
2024-01-20T00:27:20.137Z,98199.37
2024-01-20T00:29:47.146Z,98203.35
2024-01-20T00:32:14.863Z,98206.95
2024-01-20T00:34:51.631Z,98205.77
2024-01-20T00:37:27.129Z,98210.42
2024-01-20T00:39:53.808Z,98208.98
2024-01-20T00:42:20.366Z,98214.61
2024-01-20T00:44:46.863Z,98221.69
2024-01-20T00:47:13.505Z,98220.52
2024-01-20T00:49:40.385Z,98224.05
2024-01-20T00:52:07.075Z,98222.77
2024-01-20T00:54:33.718Z,98226.31
2024-01-20T00:57:00.250Z,98228.30
2024-01-20T00:59:26.789Z,98225.77
2024-01-20T01:01:53.353Z,98223.95
2024-01-20T01:04:20.575Z,98228.14
2024-01-20T01:06:47.239Z,98228.79
2024-01-20T01:09:13.745Z,98232.80
2024-01-20T01:11:40.173Z,98236.25
2024-01-20T01:14:06.746Z,98237.26
2024-01-20T01:16:33.346Z,98237.27
2024-01-20T01:19:00.078Z,98234.64
2024-01-20T01:21:26.617Z,98240.06
2024-01-20T01:23:53.272Z,98239.91
2024-01-20T01:26:20.822Z,98244.80
2024-01-20T01:28:47.478Z,98245.44
2024-01-20T01:31:14.193Z,98247.70
2024-01-20T01:33:40.881Z,98243.94
2024-01-20T01:36:07.793Z,98245.29
2024-01-20T01:38:34.400Z,98250.40
2024-01-20T01:41:01.220Z,98253.91
2024-01-20T01:43:28.186Z,98257.56
2024-01-20T01:45:54.716Z,98260.63
2024-01-20T01:48:21.847Z,98263.91
2024-01-20T01:50:49.427Z,98267.18
2024-01-20T01:53:15.957Z,98272.79
2024-01-20T01:55:44.540Z,98270.50
2024-01-20T01:58:11.173Z,98271.63
2024-01-20T02:00:38.082Z,98266.47
2024-01-20T02:03:05.103Z,98267.54
2024-01-20T02:05:31.690Z,98273.58
2024-01-20T02:07:58.431Z,98273.95
2024-01-20T02:10:24.968Z,98281.21
2024-01-20T02:12:51.706Z,98283.73
2024-01-20T02:15:18.992Z,98287.09
2024-01-20T02:17:55.748Z,98288.52
2024-01-20T02:20:23.697Z,98291.59
2024-01-20T02:22:50.439Z,98289.61
2024-01-20T02:25:16.977Z,98291.38
2024-01-20T02:27:43.508Z,98292.55
2024-01-20T02:30:10.586Z,98294.23
2024-01-20T02:32:37.436Z,98292.71
2024-01-20T02:35:04.662Z,98299.64
2024-01-20T02:37:31.476Z,98301.80
2024-01-20T02:39:58.144Z,98300.72
2024-01-20T02:42:24.763Z,98301.89
2024-01-20T02:44:51.657Z,98304.73
2024-01-20T02:47:18.639Z,98307.36
2024-01-20T02:49:45.261Z,98308.59
2024-01-20T02:52:11.934Z,98314.34
2024-01-20T02:54:38.599Z,98315.56
2024-01-20T02:57:05.420Z,98310.52
2024-01-20T02:59:31.930Z,98312.02
2024-01-20T03:01:59.076Z,98308.14
2024-01-20T03:04:25.694Z,98312.91
2024-01-20T03:06:52.263Z,98318.08
2024-01-20T03:09:18.971Z,98323.33
2024-01-20T03:11:45.735Z,98324.23
2024-01-20T03:14:12.590Z,98325.10
2024-01-20T03:16:39.425Z,98324.98
2024-01-20T03:19:06.820Z,98327.40
2024-01-20T03:21:34.677Z,98330.04
2024-01-20T03:24:01.460Z,98335.25
2024-01-20T03:26:28.314Z,98332.44
2024-01-20T03:28:54.965Z,98332.23
2024-01-20T03:31:21.488Z,98336.64
2024-01-20T03:33:48.373Z,98339.33
2024-01-20T03:36:15.251Z,98338.89
2024-01-20T03:38:41.809Z,98333.52
2024-01-20T03:41:08.346Z,98334.80
2024-01-20T03:43:34.974Z,98335.56
2024-01-20T03:46:01.631Z,98338.64
2024-01-20T03:48:28.774Z,98345.23
2024-01-20T03:50:55.664Z,98344.20
2024-01-20T03:53:22.235Z,98347.73
2024-01-20T03:55:48.942Z,98350.20
2024-01-20T03:58:15.509Z,98350.58
2024-01-20T04:00:44.013Z,98351.27
2024-01-20T04:03:10.756Z,98354.02
2024-01-20T04:05:39.871Z,98349.66
2024-01-20T04:08:06.356Z,98355.67
2024-01-20T04:10:32.991Z,98353.15
2024-01-20T04:12:59.522Z,98356.73
2024-01-20T04:15:26.201Z,98356.13
2024-01-20T04:17:53.593Z,98358.39
2024-01-20T04:20:20.384Z,98360.03
2024-01-20T04:22:47.095Z,98365.98
2024-01-20T04:25:13.730Z,98369.84
2024-01-20T04:27:41.384Z,98369.95
2024-01-20T04:30:09.673Z,98377.35
2024-01-20T04:32:36.945Z,98383.15
2024-01-20T04:35:05.203Z,98385.02
2024-01-20T04:37:31.738Z,98384.58
2024-01-20T04:39:59.798Z,98386.61
2024-01-20T04:42:26.321Z,98396.77
2024-01-20T04:44:52.963Z,98399.40
2024-01-20T04:47:19.705Z,98403.33
2024-01-20T04:49:46.256Z,98401.84
2024-01-20T04:52:12.982Z,98403.73
2024-01-20T04:54:39.522Z,98398.73
2024-01-20T04:57:06.091Z,98404.21
2024-01-20T04:59:32.678Z,98411.98
2024-01-20T05:01:59.214Z,98416.23
2024-01-20T05:04:25.757Z,98420.03
2024-01-20T05:06:52.421Z,98425.39
2024-01-20T05:09:19.186Z,98425.77
2024-01-20T05:11:45.757Z,98432.31
2024-01-20T05:14:12.398Z,98431.77
2024-01-20T05:16:39.032Z,98432.63
2024-01-20T05:19:05.946Z,98432.67
2024-01-20T05:21:32.756Z,98432.61
2024-01-20T05:23:59.795Z,98431.00
2024-01-20T05:26:26.396Z,98431.59
2024-01-20T05:28:52.932Z,98430.98
2024-01-20T05:31:19.670Z,98427.80
2024-01-20T05:33:46.432Z,98430.88
2024-01-20T05:36:13.750Z,98432.05
2024-01-20T05:38:40.602Z,98433.92
2024-01-20T05:41:08.476Z,98442.79
2024-01-20T05:43:34.999Z,98441.55
2024-01-20T05:46:07.837Z,98453.73
2024-01-20T05:48:35.475Z,98456.42
2024-01-20T05:51:02.417Z,98460.95
2024-01-20T05:53:29.231Z,98464.67
2024-01-20T05:55:55.781Z,98461.40
2024-01-20T05:58:22.704Z,98462.42
2024-01-20T06:00:49.401Z,98464.29
2024-01-20T06:03:16.099Z,98470.08
2024-01-20T06:05:42.751Z,98472.38
2024-01-20T06:08:09.685Z,98467.87
2024-01-20T06:10:36.312Z,98462.07
2024-01-20T06:13:02.939Z,98462.70
2024-01-20T06:15:29.882Z,98468.81
2024-01-20T06:17:56.594Z,98465.58
2024-01-20T06:20:23.259Z,98466.77
2024-01-20T06:22:49.705Z,98468.64
2024-01-20T06:25:16.228Z,98469.98
2024-01-20T06:27:43.063Z,98478.58
2024-01-20T06:30:10.450Z,98484.59
2024-01-20T06:32:37.092Z,98485.11
2024-01-20T06:35:04.312Z,98488.27
2024-01-20T06:37:31.047Z,98483.81
2024-01-20T06:39:57.598Z,98486.64
2024-01-20T06:42:24.108Z,98483.83
2024-01-20T06:44:50.542Z,98490.34
2024-01-20T06:47:17.182Z,98488.98
2024-01-20T06:49:50.203Z,98490.80
2024-01-20T06:52:17.315Z,98489.06
2024-01-20T06:54:44.456Z,98488.79
2024-01-20T06:57:11.365Z,98488.35
2024-01-20T06:59:38.246Z,98490.64
2024-01-20T07:02:04.746Z,98491.83
2024-01-20T07:04:31.670Z,98493.28
2024-01-20T07:06:58.353Z,98489.22
2024-01-20T07:09:26.226Z,98487.02
2024-01-20T07:11:56.226Z,98490.66
2024-01-20T07:14:24.515Z,98488.40
2024-01-20T07:16:51.246Z,98490.81
2024-01-20T07:19:18.028Z,98483.22
2024-01-20T07:21:44.522Z,98479.72
2024-01-20T07:24:11.213Z,98482.13
2024-01-20T07:26:37.899Z,98479.39
2024-01-20T07:29:04.445Z,98479.81
2024-01-20T07:31:30.971Z,98484.91
2024-01-20T07:33:57.673Z,98486.88
2024-01-20T07:36:24.483Z,98482.85
2024-01-20T07:38:51.181Z,98477.41
2024-01-20T07:41:19.053Z,98479.22
2024-01-20T07:43:45.793Z,98479.05
2024-01-20T07:46:13.359Z,98481.10
2024-01-20T07:48:40.065Z,98481.15
2024-01-20T07:51:06.928Z,98480.80
2024-01-20T07:53:33.579Z,98477.20
2024-01-20T07:56:00.120Z,98479.02
2024-01-20T07:58:26.839Z,98473.42
2024-01-20T08:00:53.474Z,98475.08
2024-01-20T08:03:20.269Z,98479.76
2024-01-20T08:05:47.243Z,98482.95
2024-01-20T08:08:14.026Z,98484.14
2024-01-20T08:10:40.740Z,98485.58
2024-01-20T08:13:07.474Z,98495.80
2024-01-20T08:15:34.096Z,98495.08
2024-01-20T08:18:00.914Z,98486.58
2024-01-20T08:20:28.204Z,98487.22
2024-01-20T08:22:54.734Z,98487.80
2024-01-20T08:25:21.266Z,98495.59
2024-01-20T08:27:47.803Z,98502.84
2024-01-20T08:30:15.338Z,98508.54
2024-01-20T08:32:42.398Z,98514.75
2024-01-20T08:35:10.684Z,98510.88
2024-01-20T08:37:37.313Z,98504.78
2024-01-20T08:40:04.488Z,98507.41
2024-01-20T08:42:31.401Z,98506.98
2024-01-20T08:44:58.281Z,98508.22
2024-01-20T08:47:24.886Z,98508.86
2024-01-20T08:49:52.562Z,98505.20
2024-01-20T08:52:19.496Z,98506.52
2024-01-20T08:54:46.127Z,98509.16
2024-01-20T08:57:12.694Z,98512.21
2024-01-20T08:59:39.708Z,98514.73
2024-01-20T09:02:06.747Z,98517.15
2024-01-20T09:04:33.287Z,98515.70
2024-01-20T09:07:00.071Z,98512.95
2024-01-20T09:09:26.800Z,98516.44
2024-01-20T09:11:53.317Z,98510.84
2024-01-20T09:14:19.856Z,98502.19
2024-01-20T09:16:46.572Z,98496.73
2024-01-20T09:19:13.229Z,98495.10
2024-01-20T09:21:39.883Z,98491.23
2024-01-20T09:24:07.036Z,98487.48
2024-01-20T09:26:33.718Z,98487.35
2024-01-20T09:29:01.069Z,98480.94
2024-01-20T09:31:27.668Z,98476.74
2024-01-20T09:33:54.326Z,98479.15
2024-01-20T09:36:21.036Z,98475.16
2024-01-20T09:38:47.607Z,98474.45
2024-01-20T09:41:14.149Z,98473.52
2024-01-20T09:43:40.831Z,98472.70
2024-01-20T09:46:07.719Z,98471.13
2024-01-20T09:48:34.506Z,98476.07
2024-01-20T09:51:01.315Z,98469.45
2024-01-20T09:53:27.831Z,98468.27
2024-01-20T09:55:54.466Z,98466.77
2024-01-20T09:58:21.511Z,98463.24
2024-01-20T10:00:48.523Z,98461.14
2024-01-20T10:03:15.944Z,98459.63
2024-01-20T10:05:42.671Z,98456.08
2024-01-20T10:08:09.604Z,98452.23
2024-01-20T10:10:36.158Z,98450.61
2024-01-20T10:13:03.476Z,98451.20
2024-01-20T10:15:35.110Z,98447.09
2024-01-20T10:18:09.673Z,98444.83
2024-01-20T10:20:36.818Z,98448.75
2024-01-20T10:23:04.977Z,98445.20
2024-01-20T10:25:31.602Z,98449.39
2024-01-20T10:27:59.575Z,98444.54
2024-01-20T10:30:26.165Z,98452.96
2024-01-20T10:33:04.052Z,98452.05
2024-01-20T10:35:35.896Z,98455.75
2024-01-20T10:38:03.339Z,98462.24
2024-01-20T10:40:30.181Z,98459.83
2024-01-20T10:43:07.329Z,98456.10
2024-01-20T10:45:34.348Z,98453.92
2024-01-20T10:48:18.449Z,98448.66
2024-01-20T10:50:48.909Z,98435.27
2024-01-20T10:53:15.420Z,98425.05
2024-01-20T10:55:42.104Z,98420.58
2024-01-20T10:58:08.792Z,98422.67
2024-01-20T11:00:35.730Z,98424.08
2024-01-20T11:03:02.551Z,98416.98
2024-01-20T11:05:29.419Z,98422.29
2024-01-20T11:07:57.808Z,98422.10
2024-01-20T11:10:24.756Z,98412.23
2024-01-20T11:13:03.990Z,98418.02
2024-01-20T11:15:31.271Z,98410.17
2024-01-20T11:17:58.624Z,98404.16
2024-01-20T11:20:26.356Z,98396.70
2024-01-20T11:22:53.504Z,98401.59
2024-01-20T11:25:20.355Z,98408.37
2024-01-20T11:27:52.011Z,98408.84
2024-01-20T11:30:26.412Z,98397.84
2024-01-20T11:32:53.927Z,98391.05
2024-01-20T11:35:20.617Z,98389.10
2024-01-20T11:37:47.154Z,98386.48
2024-01-20T11:40:13.797Z,98389.16
2024-01-20T11:42:40.341Z,98380.55
2024-01-20T11:45:07.685Z,98385.69
2024-01-20T11:47:35.247Z,98383.33
2024-01-20T11:50:01.909Z,98386.71
2024-01-20T11:52:28.911Z,98387.66
2024-01-20T11:54:55.679Z,98390.98
2024-01-20T11:57:32.400Z,98397.59
2024-01-20T11:59:59.345Z,98392.95
2024-01-20T12:02:26.422Z,98385.55
2024-01-20T12:04:59.700Z,98385.22
2024-01-20T12:07:29.078Z,98385.29
2024-01-20T12:09:55.642Z,98388.19
2024-01-20T12:12:23.654Z,98384.08
2024-01-20T12:14:50.248Z,98391.33
2024-01-20T12:17:16.884Z,98386.44
2024-01-20T12:19:44.206Z,98389.66
2024-01-20T12:22:12.790Z,98387.56
2024-01-20T12:24:41.012Z,98389.23
2024-01-20T12:27:07.562Z,98388.56
2024-01-20T12:29:34.173Z,98391.63
2024-01-20T12:32:00.801Z,98390.14
2024-01-20T12:34:27.502Z,98397.73
2024-01-20T12:36:54.820Z,98398.94
2024-01-20T12:39:22.188Z,98399.15
2024-01-20T12:41:49.187Z,98396.64
2024-01-20T12:44:16.952Z,98398.83
2024-01-20T12:46:43.673Z,98388.94
2024-01-20T12:49:10.382Z,98386.36
2024-01-20T12:51:37.213Z,98393.85
2024-01-20T12:54:04.500Z,98386.95
2024-01-20T12:56:31.270Z,98392.34
2024-01-20T12:58:57.895Z,98385.58
2024-01-20T13:01:26.488Z,98388.77
2024-01-20T13:03:54.472Z,98392.71
2024-01-20T13:06:21.450Z,98392.65
2024-01-20T13:08:48.340Z,98389.39
2024-01-20T13:11:14.872Z,98389.77
2024-01-20T13:13:42.363Z,98387.13
2024-01-20T13:16:09.485Z,98390.16
2024-01-20T13:18:36.731Z,98390.23
2024-01-20T13:21:04.023Z,98388.41
2024-01-20T13:23:30.806Z,98385.33
2024-01-20T13:25:57.650Z,98385.50
2024-01-20T13:28:24.705Z,98385.20
2024-01-20T13:30:54.086Z,98384.30
2024-01-20T13:33:20.773Z,98382.66
2024-01-20T13:35:47.466Z,98384.02
2024-01-20T13:38:14.016Z,98381.70
2024-01-20T13:40:40.947Z,98387.90
2024-01-20T13:43:07.583Z,98385.52
2024-01-20T13:45:34.955Z,98387.05
2024-01-20T13:48:01.627Z,98384.20
2024-01-20T13:50:28.629Z,98388.72
2024-01-20T13:52:56.597Z,98382.12
2024-01-20T13:55:23.231Z,98377.86
2024-01-20T13:57:49.888Z,98370.62
2024-01-20T14:00:17.074Z,98365.51
2024-01-20T14:02:45.081Z,98364.44
2024-01-20T14:05:14.377Z,98366.80
2024-01-20T14:07:41.325Z,98369.66
2024-01-20T14:10:09.099Z,98373.76
2024-01-20T14:12:35.748Z,98384.04
2024-01-20T14:15:02.974Z,98376.13
2024-01-20T14:17:29.718Z,98380.70
2024-01-20T14:19:56.472Z,98382.16
2024-01-20T14:22:23.505Z,98375.23
2024-01-20T14:24:51.465Z,98377.92
2024-01-20T14:27:18.034Z,98381.22
2024-01-20T14:29:44.537Z,98376.40
2024-01-20T14:32:11.684Z,98371.73
2024-01-20T14:34:38.384Z,98372.17
2024-01-20T14:37:07.711Z,98368.48
2024-01-20T14:39:35.206Z,98371.39
2024-01-20T14:42:02.617Z,98377.27
2024-01-20T14:44:29.525Z,98381.21
2024-01-20T14:46:56.209Z,98384.48
2024-01-20T14:49:23.466Z,98388.58
2024-01-20T14:51:50.548Z,98384.09
2024-01-20T14:54:17.551Z,98388.88
2024-01-20T14:56:44.292Z,98393.23
2024-01-20T14:59:10.950Z,98391.34
2024-01-20T15:01:37.849Z,98393.59
2024-01-20T15:04:05.465Z,98396.08
2024-01-20T15:06:32.321Z,98392.86
2024-01-20T15:08:59.347Z,98392.44
2024-01-20T15:11:26.365Z,98389.48
2024-01-20T15:13:52.905Z,98387.61
2024-01-20T15:16:19.436Z,98383.05
2024-01-20T15:18:46.031Z,98386.70
2024-01-20T15:21:12.633Z,98387.30
2024-01-20T15:23:39.349Z,98387.94
2024-01-20T15:26:05.980Z,98380.76
2024-01-20T15:28:32.716Z,98382.86
2024-01-20T15:30:59.258Z,98380.92
2024-01-20T15:33:25.989Z,98382.92
2024-01-20T15:35:52.727Z,98398.19
2024-01-20T15:38:19.376Z,98400.08
2024-01-20T15:40:45.946Z,98400.84
2024-01-20T15:43:12.537Z,98400.45
2024-01-20T15:45:39.273Z,98404.06
2024-01-20T15:48:06.256Z,98405.42
2024-01-20T15:50:33.262Z,98405.33
2024-01-20T15:52:59.903Z,98407.47
2024-01-20T15:55:26.746Z,98407.10
2024-01-20T15:57:53.381Z,98404.30
2024-01-20T16:00:20.105Z,98407.15
2024-01-20T16:02:47.271Z,98410.17
2024-01-20T16:05:13.795Z,98412.16
2024-01-20T16:07:40.438Z,98411.84
2024-01-20T16:10:07.690Z,98410.35
2024-01-20T16:12:34.752Z,98408.95
2024-01-20T16:15:01.511Z,98406.97
2024-01-20T16:17:28.631Z,98407.56
2024-01-20T16:19:55.451Z,98410.35
2024-01-20T16:22:21.990Z,98412.39
2024-01-20T16:24:48.616Z,98411.80
2024-01-20T16:27:15.287Z,98410.84
2024-01-20T16:29:41.915Z,98408.64
2024-01-20T16:32:10.183Z,98410.52
2024-01-20T16:34:36.859Z,98405.79
2024-01-20T16:37:04.994Z,98402.02
2024-01-20T16:39:31.681Z,98405.80
2024-01-20T16:41:58.767Z,98403.27
2024-01-20T16:44:26.634Z,98404.66
2024-01-20T16:46:53.576Z,98410.84
2024-01-20T16:49:21.453Z,98406.55
2024-01-20T16:51:48.320Z,98410.78
2024-01-20T16:54:15.091Z,98411.02
2024-01-20T16:56:41.871Z,98415.57
2024-01-20T16:59:09.981Z,98418.65
2024-01-20T17:01:37.837Z,98416.54
2024-01-20T17:04:04.770Z,98413.86
2024-01-20T17:06:33.669Z,98418.44
2024-01-20T17:09:01.541Z,98419.03
2024-01-20T17:11:28.246Z,98422.48
2024-01-20T17:13:55.304Z,98422.65
2024-01-20T17:16:22.054Z,98426.10
2024-01-20T17:18:48.759Z,98425.85
2024-01-20T17:21:16.937Z,98427.67
2024-01-20T17:23:44.194Z,98426.56
2024-01-20T17:26:11.747Z,98428.86
2024-01-20T17:28:38.392Z,98429.95
2024-01-20T17:31:06.040Z,98435.70
2024-01-20T17:33:32.654Z,98429.52
2024-01-20T17:35:59.535Z,98436.40
2024-01-20T17:38:26.059Z,98437.95
2024-01-20T17:40:52.898Z,98437.09
2024-01-20T17:43:21.372Z,98435.40
2024-01-20T17:45:51.357Z,98434.84
2024-01-20T17:48:18.933Z,98439.25
2024-01-20T17:50:45.582Z,98437.12
2024-01-20T17:53:13.346Z,98427.77
2024-01-20T17:55:41.312Z,98423.85
2024-01-20T17:58:09.789Z,98422.45
2024-01-20T18:00:36.855Z,98419.55
2024-01-20T18:03:04.546Z,98422.45
2024-01-20T18:05:31.205Z,98423.10
2024-01-20T18:07:57.972Z,98426.76
2024-01-20T18:10:24.510Z,98421.55
2024-01-20T18:12:51.052Z,98426.98
2024-01-20T18:15:17.704Z,98434.39
2024-01-20T18:17:45.784Z,98434.97
2024-01-20T18:20:13.728Z,98432.41
2024-01-20T18:22:40.255Z,98430.95
2024-01-20T18:25:07.801Z,98430.24
2024-01-20T18:27:34.756Z,98433.58
2024-01-20T18:30:01.732Z,98427.41
2024-01-20T18:32:28.919Z,98432.02
2024-01-20T18:34:55.899Z,98432.88
2024-01-20T18:37:23.344Z,98431.81
2024-01-20T18:39:49.886Z,98436.20
2024-01-20T18:42:20.111Z,98429.98
2024-01-20T18:44:48.179Z,98428.33
2024-01-20T18:47:15.432Z,98431.97
2024-01-20T18:49:42.156Z,98426.11
2024-01-20T18:52:08.793Z,98424.50
2024-01-20T18:54:37.904Z,98424.73
2024-01-20T18:57:06.181Z,98421.60
2024-01-20T18:59:32.896Z,98425.36
2024-01-20T19:02:00.048Z,98427.46
2024-01-20T19:04:27.779Z,98432.30
2024-01-20T19:06:54.857Z,98427.59
2024-01-20T19:09:21.404Z,98430.12
2024-01-20T19:11:48.036Z,98434.42
2024-01-20T19:14:14.893Z,98426.59
2024-01-20T19:16:41.405Z,98427.03
2024-01-20T19:19:08.330Z,98424.88
2024-01-20T19:21:35.213Z,98424.30
2024-01-20T19:24:03.808Z,98418.66
2024-01-20T19:26:30.512Z,98418.61
2024-01-20T19:28:57.149Z,98417.38
2024-01-20T19:31:23.684Z,98420.07
2024-01-20T19:33:53.809Z,98421.96
2024-01-20T19:36:21.233Z,98423.79
2024-01-20T19:38:48.323Z,98429.33
2024-01-20T19:41:15.861Z,98429.33
2024-01-20T19:43:42.498Z,98434.33
2024-01-20T19:46:09.033Z,98430.79
2024-01-20T19:48:35.660Z,98431.91
2024-01-20T19:51:02.307Z,98431.74
2024-01-20T19:53:29.051Z,98435.68
2024-01-20T19:55:55.683Z,98436.48
2024-01-20T19:58:22.419Z,98438.69
2024-01-20T20:00:50.716Z,98438.00
2024-01-20T20:03:17.848Z,98436.80
2024-01-20T20:05:45.313Z,98434.88
2024-01-20T20:08:12.860Z,98427.58
2024-01-20T20:10:39.512Z,98429.41
2024-01-20T20:13:06.158Z,98441.45
2024-01-20T20:15:32.829Z,98443.98
2024-01-20T20:17:59.888Z,98447.70
2024-01-20T20:20:26.755Z,98450.44
2024-01-20T20:22:53.392Z,98454.16
2024-01-20T20:25:19.925Z,98454.29
2024-01-20T20:27:46.700Z,98452.83
2024-01-20T20:30:14.898Z,98453.16
2024-01-20T20:32:41.731Z,98452.46
2024-01-20T20:35:08.929Z,98452.41
2024-01-20T20:37:35.464Z,98459.71
2024-01-20T20:40:03.842Z,98457.16
2024-01-20T20:42:30.791Z,98461.67
2024-01-20T20:44:57.529Z,98461.58
2024-01-20T20:47:24.056Z,98464.70
2024-01-20T20:49:51.147Z,98466.31
2024-01-20T20:52:18.056Z,98468.72
2024-01-20T20:54:44.771Z,98473.23
2024-01-20T20:57:11.573Z,98473.83
2024-01-20T20:59:39.396Z,98474.64
2024-01-20T21:02:07.884Z,98473.25
2024-01-20T21:04:34.559Z,98477.98
2024-01-20T21:07:01.370Z,98480.05
2024-01-20T21:09:28.142Z,98481.16
2024-01-20T21:11:55.028Z,98482.59
2024-01-20T21:14:21.888Z,98480.61
2024-01-20T21:16:48.415Z,98485.87
2024-01-20T21:19:15.334Z,98488.13
2024-01-20T21:21:42.125Z,98488.80
2024-01-20T21:24:09.570Z,98492.77
2024-01-20T21:26:36.401Z,98488.38
2024-01-20T21:29:03.329Z,98487.57
2024-01-20T21:31:30.733Z,98490.05
2024-01-20T21:33:57.413Z,98487.10
2024-01-20T21:36:25.206Z,98493.77
2024-01-20T21:38:51.816Z,98494.11
2024-01-20T21:41:19.684Z,98493.56
2024-01-20T21:43:46.228Z,98490.36
2024-01-20T21:46:12.752Z,98492.13
2024-01-20T21:48:39.944Z,98496.86
2024-01-20T21:51:06.664Z,98498.14
2024-01-20T21:53:33.271Z,98501.77
2024-01-20T21:55:59.808Z,98501.16
2024-01-20T21:58:26.858Z,98503.27
2024-01-20T22:00:53.698Z,98499.89
2024-01-20T22:03:20.486Z,98503.32
2024-01-20T22:05:47.208Z,98504.08
2024-01-20T22:08:13.711Z,98501.23
2024-01-20T22:10:40.344Z,98504.13
2024-01-20T22:13:07.100Z,98503.80
2024-01-20T22:15:33.972Z,98504.95
2024-01-20T22:18:01.056Z,98504.85
2024-01-20T22:20:27.708Z,98507.91
2024-01-20T22:22:54.365Z,98509.14
2024-01-20T22:25:21.103Z,98511.52
2024-01-20T22:27:47.693Z,98513.50
2024-01-20T22:30:15.231Z,98515.16
2024-01-20T22:32:42.089Z,98515.97
2024-01-20T22:35:08.726Z,98514.63
2024-01-20T22:37:35.507Z,98514.58
2024-01-20T22:40:03.071Z,98518.71
2024-01-20T22:42:30.730Z,98519.67
2024-01-20T22:44:57.236Z,98525.32
2024-01-20T22:47:23.852Z,98526.97
2024-01-20T22:49:50.758Z,98527.79
2024-01-20T22:52:17.560Z,98530.20
2024-01-20T22:54:45.313Z,98534.16
2024-01-20T22:57:12.187Z,98528.73
2024-01-20T22:59:38.965Z,98522.83
2024-01-20T23:02:05.537Z,98520.46
2024-01-20T23:04:32.820Z,98520.20
2024-01-20T23:06:59.697Z,98522.94
2024-01-20T23:09:26.918Z,98528.14
2024-01-20T23:11:53.730Z,98532.70
2024-01-20T23:14:20.472Z,98534.11
2024-01-20T23:16:47.358Z,98535.50
2024-01-20T23:19:14.227Z,98534.21
2024-01-20T23:21:41.012Z,98536.47
2024-01-20T23:24:07.549Z,98535.83
2024-01-20T23:26:34.053Z,98535.59
2024-01-20T23:29:00.599Z,98544.61
2024-01-20T23:31:27.277Z,98547.05
2024-01-20T23:33:54.217Z,98547.73
2024-01-20T23:36:21.045Z,98550.59
2024-01-20T23:38:47.544Z,98552.29
2024-01-20T23:41:14.181Z,98553.13
2024-01-20T23:43:41.029Z,98556.44
2024-01-20T23:46:10.476Z,98559.02
2024-01-20T23:48:37.107Z,98564.02
2024-01-20T23:51:04.629Z,98562.88
2024-01-20T23:53:31.265Z,98562.98
2024-01-20T23:55:57.747Z,98562.92
2024-01-20T23:58:24.732Z,98567.81
